Time;durP1;ratioP1;P1;durP2;ratioP2;P2;SDS_P1;SDS_P2;PMS_P1;PMS_P2;Temp;Humidity;BMP_temperature;BMP_pressure;BME280_temperature;BME280_humidity;BME280_pressure;Samples;Min_cycle;Max_cycle;Signal;HPM_P1;HPM_P2
2022/05/18 00:02:00;;;;;;;2.87;2.10;;;;;;;15.24;100.00;100746.69;5588503;31;34149;-69
2022/05/18 00:05:04;;;;;;;3.30;1.87;;;;;;;15.14;100.00;100746.97;5588541;31;34105;-69
2022/05/18 00:08:08;;;;;;;10.25;2.53;;;;;;;15.17;100.00;100757.28;5588545;31;34637;-68
2022/05/18 00:11:18;;;;;;;2.87;1.90;;;;;;;15.16;100.00;100762.81;5587530;31;33348;-69
2022/05/18 00:14:21;;;;;;;3.85;1.90;;;;;;;15.17;99.69;100764.47;5587527;31;33886;-69
2022/05/18 00:17:24;;;;;;;3.95;2.00;;;;;;;15.20;98.93;100772.94;5587624;31;34150;-69
2022/05/18 00:20:27;;;;;;;5.70;1.80;;;;;;;15.23;97.21;100769.06;5587606;31;33993;-69
2022/05/18 00:23:30;;;;;;;6.65;1.90;;;;;;;15.15;96.96;100767.31;5588188;31;34008;-69
2022/05/18 00:26:33;;;;;;;3.42;1.90;;;;;;;15.27;97.58;100767.66;5587994;31;35276;-69
2022/05/18 00:29:36;;;;;;;2.08;1.70;;;;;;;15.11;98.96;100767.88;5588044;31;34231;-69
2022/05/18 00:32:38;;;;;;;4.65;1.75;;;;;;;15.13;95.61;100774.72;5587806;31;34222;-69
2022/05/18 00:35:41;;;;;;;4.75;1.90;;;;;;;15.12;94.62;100769.56;5588029;31;34386;-69
2022/05/18 00:38:44;;;;;;;3.10;1.92;;;;;;;15.07;92.61;100771.94;5588300;31;34171;-69
2022/05/18 00:41:47;;;;;;;4.12;1.70;;;;;;;15.06;91.72;100775.63;5587558;31;35227;-69
2022/05/18 00:44:49;;;;;;;2.83;1.80;;;;;;;15.00;92.68;100782.59;5574271;31;32428;-69
2022/05/18 00:47:53;;;;;;;3.92;1.67;;;;;;;14.94;91.82;100786.00;5587808;31;33942;-69
2022/05/18 00:50:58;;;;;;;3.80;1.52;;;;;;;14.91;89.67;100778.31;5587155;31;33113;-69
2022/05/18 00:54:22;;;;;;;4.28;1.33;;;;;;;14.82;90.26;100787.47;5586872;31;34664;-69
2022/05/18 00:57:32;;;;;;;2.85;1.70;;;;;;;14.67;90.86;100787.47;5587715;31;33846;-70
2022/05/18 01:00:37;;;;;;;3.83;1.52;;;;;;;14.59;93.25;100792.91;5588788;31;33939;-69
2022/05/18 01:03:51;;;;;;;4.70;1.75;;;;;;;14.59;93.04;100792.91;5590591;31;34120;-70
2022/05/18 01:07:02;;;;;;;2.00;1.48;;;;;;;14.55;92.51;100802.31;5590544;31;34012;-69
2022/05/18 01:10:05;;;;;;;;;;;;;;;14.56;89.63;100801.28;5591168;31;34770;-69
2022/05/18 01:13:08;;;;;;;3.58;1.60;;;;;;;14.65;89.13;100813.53;5590512;31;34260;-69
2022/05/18 01:16:11;;;;;;;3.05;1.70;;;;;;;14.58;89.35;100804.59;5590346;31;34285;-69
2022/05/18 01:19:40;;;;;;;3.58;1.70;;;;;;;14.59;88.18;100806.25;5576768;31;33279;-69
2022/05/18 01:23:10;;;;;;;6.25;1.83;;;;;;;14.63;87.98;100815.56;5590541;31;32898;-69
2022/05/18 01:26:35;;;;;;;3.47;1.62;;;;;;;14.66;86.98;100814.38;5590431;31;34667;-69
2022/05/18 01:29:38;;;;;;;4.20;1.70;;;;;;;14.62;87.35;100821.91;5590252;31;34155;-69
2022/05/18 01:32:50;;;;;;;2.25;1.52;;;;;;;14.54;89.11;100818.50;5590218;31;34031;-69
2022/05/18 01:35:53;;;;;;;4.05;1.70;;;;;;;14.49;87.05;100820.88;5590112;31;34763;-69
2022/05/18 01:38:55;;;;;;;2.45;1.60;;;;;;;14.38;87.88;100819.47;5590275;31;34779;-69
2022/05/18 01:42:14;;;;;;;3.62;1.70;;;;;;;14.40;88.14;100820.13;5590601;31;34600;-69
2022/05/18 01:45:17;;;;;;;2.92;1.55;;;;;;;14.31;88.80;100821.19;5590605;31;34003;-69
2022/05/18 01:48:24;;;;;;;2.95;1.77;;;;;;;14.17;90.79;100827.34;5590201;31;34616;-70
2022/05/18 01:51:34;;;;;;;2.50;1.60;;;;;;;14.12;90.29;100824.38;5590219;31;33917;-69
2022/05/18 01:54:43;;;;;;;3.78;1.75;;;;;;;14.01;90.01;100832.78;5589984;31;34607;-69
2022/05/18 01:57:46;;;;;;;1.77;1.50;;;;;;;14.01;92.96;100833.63;5590447;31;34004;-69
2022/05/18 02:00:50;;;;;;;4.30;1.80;;;;;;;13.87;91.60;100834.41;5590013;31;33901;-70
2022/05/18 02:03:53;;;;;;;2.97;1.77;;;;;;;13.78;94.72;100835.47;5589261;31;34603;-69
2022/05/18 02:06:56;;;;;;;2.95;1.60;;;;;;;13.63;95.69;100846.06;5589923;31;34891;-70
2022/05/18 02:09:59;;;;;;;3.03;1.60;;;;;;;13.44;96.21;100855.34;5590416;31;34823;-70
2022/05/18 02:13:02;;;;;;;3.20;1.80;;;;;;;13.29;97.57;100864.25;5588539;31;33533;-69
2022/05/18 02:16:06;;;;;;;5.93;1.85;;;;;;;13.24;98.12;100858.59;5589981;31;33894;-69
2022/05/18 02:19:09;;;;;;;2.20;1.73;;;;;;;13.35;98.82;100867.06;5589251;31;33823;-69
2022/05/18 02:22:12;;;;;;;3.45;1.70;;;;;;;13.18;99.30;100872.59;5589830;31;33948;-70
2022/05/18 02:25:15;;;;;;;5.25;1.75;;;;;;;13.16;100.00;100866.63;5589904;31;33973;-69
2022/05/18 02:28:18;;;;;;;3.90;2.22;;;;;;;13.00;100.00;100875.47;5589927;31;34030;-70
2022/05/18 02:31:21;;;;;;;5.60;1.87;;;;;;;12.93;100.00;100882.47;5590055;31;34822;-69
2022/05/18 02:34:24;;;;;;;5.22;1.60;;;;;;;12.86;100.00;100886.84;5575616;31;32457;-69
2022/05/18 02:37:26;;;;;;;3.00;1.77;;;;;;;12.95;100.00;100899.97;5588873;31;34207;-68
2022/05/18 02:40:29;;;;;;;2.90;1.67;;;;;;;13.02;98.95;100892.13;5589624;31;34572;-69
2022/05/18 02:43:37;;;;;;;4.87;2.10;;;;;;;13.13;99.35;100898.94;5575943;31;33806;-69
2022/05/18 02:46:40;;;;;;;4.00;2.12;;;;;;;13.02;100.00;100900.12;5589897;31;34030;-69
2022/05/18 02:49:43;;;;;;;4.75;2.08;;;;;;;12.98;100.00;100902.28;5589957;31;34615;-68
2022/05/18 02:52:47;;;;;;;2.87;1.90;;;;;;;13.13;98.53;100905.09;5589551;31;34219;-68
2022/05/18 02:56:07;;;;;;;3.15;1.77;;;;;;;13.19;98.10;100915.06;5589926;31;33972;-68
2022/05/18 02:59:10;;;;;;;3.75;2.08;;;;;;;13.21;98.18;100920.22;5589790;31;34166;-68
2022/05/18 03:02:13;;;;;;;5.03;1.90;;;;;;;13.19;98.56;100923.06;5575716;31;33529;-68
2022/05/18 03:05:17;;;;;;;4.53;2.20;;;;;;;13.20;99.56;100919.41;5589804;31;34600;-67
2022/05/18 03:08:20;;;;;;;5.62;1.90;;;;;;;13.05;100.00;100927.22;5589319;31;34113;-68
2022/05/18 03:11:23;;;;;;;2.97;2.00;;;;;;;13.04;99.97;100941.56;5589653;31;34022;-68
2022/05/18 03:14:26;;;;;;;5.05;2.37;;;;;;;13.05;98.41;100945.03;5588956;31;34694;-68
2022/05/18 03:17:29;;;;;;;5.00;1.90;;;;;;;13.02;98.21;100956.84;5589267;31;33961;-68
2022/05/18 03:23:53;;;;;;;4.65;2.05;;;;;;;12.96;97.72;100959.37;5588202;31;34043;-68
2022/05/18 03:26:56;;;;;;;3.12;1.65;;;;;;;12.89;98.90;100958.38;5589174;31;33999;-68
2022/05/18 03:29:59;;;;;;;5.20;2.20;;;;;;;12.88;98.88;100965.53;5589080;31;34657;-68
2022/05/18 03:33:05;;;;;;;4.47;2.20;;;;;;;12.87;99.42;100974.53;5589269;31;34598;-69
2022/05/18 03:36:12;;;;;;;3.12;2.17;;;;;;;12.82;99.66;100979.53;5588261;31;34339;-69
2022/05/18 03:39:15;;;;;;;4.62;2.10;;;;;;;12.71;100.00;100979.03;5588507;31;34795;-68
2022/05/18 03:42:18;;;;;;;3.55;2.03;;;;;;;12.67;100.00;100986.53;5588859;31;33979;-69
2022/05/18 03:45:21;;;;;;;4.00;2.00;;;;;;;12.69;99.79;100989.84;5588847;31;34603;-69
2022/05/18 03:48:25;;;;;;;4.45;2.22;;;;;;;12.78;98.53;101001.34;5588774;31;34141;-68
2022/05/18 03:51:28;;;;;;;7.28;2.25;;;;;;;12.85;96.53;101000.50;5588811;31;34624;-69
2022/05/18 03:54:31;;;;;;;3.40;2.10;;;;;;;12.96;96.06;101010.81;5587879;31;34021;-69
2022/05/18 03:57:34;;;;;;;3.87;2.10;;;;;;;12.94;96.82;101020.78;5574817;31;33803;-70
2022/05/18 04:00:39;;;;;;;3.85;2.20;;;;;;;12.87;97.54;101019.81;5587658;31;34575;-70
2022/05/18 04:03:44;;;;;;;4.15;2.50;;;;;;;12.87;99.14;101037.63;5588531;31;33914;-70
2022/05/18 04:06:48;;;;;;;3.47;2.25;;;;;;;12.92;100.00;101043.28;5588480;31;35457;-69
2022/05/18 04:09:51;;;;;;;2.03;1.70;;;;;;;12.89;100.00;101046.25;5588355;31;34030;-70
2022/05/18 04:12:54;;;;;;;5.28;2.45;;;;;;;12.90;100.00;101053.25;5588403;31;33928;-69
2022/05/18 04:15:57;;;;;;;3.25;2.42;;;;;;;12.96;100.00;101061.41;5588239;31;33895;-68
2022/05/18 04:19:00;;;;;;;5.95;2.45;;;;;;;13.00;100.00;101069.91;5588556;31;35176;-68
2022/05/18 04:22:03;;;;;;;4.65;2.60;;;;;;;13.05;100.00;101072.91;5574558;31;32386;-69
2022/05/18 04:25:07;;;;;;;6.40;2.33;;;;;;;13.07;99.48;101077.03;5588100;31;33831;-70
2022/05/18 04:28:13;;;;;;;3.35;2.33;;;;;;;13.15;97.79;101086.91;5587552;31;33895;-69
2022/05/18 04:31:17;;;;;;;3.72;2.35;;;;;;;13.10;97.52;101083.06;5588133;31;33872;-69
2022/05/18 04:34:21;;;;;;;5.25;2.60;;;;;;;13.09;97.46;101092.88;5588861;31;34702;-70
2022/05/18 04:37:24;;;;;;;5.95;2.15;;;;;;;13.08;97.61;101096.53;5590616;31;33890;-69
2022/05/18 04:40:27;;;;;;;3.55;2.10;;;;;;;13.09;97.10;101100.88;5590186;31;34153;-70
2022/05/18 04:43:32;;;;;;;4.65;2.40;;;;;;;13.10;96.92;101102.53;5590983;31;34008;-69
2022/05/18 04:46:35;;;;;;;4.18;2.30;;;;;;;13.16;95.67;101115.22;5590685;31;34220;-70
2022/05/18 04:49:38;;;;;;;3.37;2.42;;;;;;;13.31;94.59;101121.53;5590675;31;34588;-70
2022/05/18 04:52:42;;;;;;;3.62;2.12;;;;;;;13.43;92.73;101124.69;5590487;31;34316;-70
2022/05/18 04:55:45;;;;;;;5.28;2.15;;;;;;;13.55;91.01;101127.88;5590669;31;33936;-69
2022/05/18 04:58:48;;;;;;;3.70;2.05;;;;;;;13.59;90.08;101134.53;5590810;31;34606;-69
2022/05/18 05:01:50;;;;;;;3.95;2.20;;;;;;;13.66;87.85;101135.50;5590781;31;34469;-71
2022/05/18 05:04:54;;;;;;;8.07;2.40;;;;;;;13.79;86.17;101136.66;5590473;31;34440;-70
2022/05/18 05:07:57;;;;;;;4.30;2.50;;;;;;;14.06;86.06;101146.06;5590377;31;34008;-70
2022/05/18 05:11:00;;;;;;;3.75;2.00;;;;;;;14.18;83.54;101154.56;5590535;31;34489;-70
2022/05/18 05:14:03;;;;;;;3.00;1.62;;;;;;;14.22;83.29;101170.03;5590393;31;34286;-70
2022/05/18 05:17:07;;;;;;;3.47;1.83;;;;;;;14.10;79.49;101174.06;5590423;31;34156;-69
2022/05/18 05:20:11;;;;;;;6.15;1.62;;;;;;;14.17;79.33;101176.91;5590032;31;34314;-71
2022/05/18 05:23:14;;;;;;;3.33;1.40;;;;;;;14.23;75.40;101178.88;5589851;31;34000;-69
2022/05/18 05:26:17;;;;;;;2.60;1.45;;;;;;;14.12;72.66;101189.91;5589143;31;35368;-70
2022/05/18 05:29:20;;;;;;;2.65;1.40;;;;;;;14.13;71.87;101197.75;5589945;31;34178;-69
2022/05/18 05:32:25;;;;;;;5.12;1.48;;;;;;;14.10;70.59;101200.75;5588984;31;33898;-70
2022/05/18 05:35:28;;;;;;;2.03;1.45;;;;;;;14.31;72.39;101209.03;5589199;31;32577;-70
2022/05/18 05:38:31;;;;;;;3.60;1.45;;;;;;;14.39;70.03;101218.03;5576368;31;32340;-70
2022/05/18 05:41:34;;;;;;;4.87;1.35;;;;;;;14.38;72.57;101211.06;5589595;31;34884;-70
2022/05/18 05:44:37;;;;;;;3.17;1.23;;;;;;;14.48;69.72;101220.50;5589067;31;33916;-70
2022/05/18 05:47:40;;;;;;;3.92;1.20;;;;;;;14.49;69.00;101240.03;5589151;31;33953;-70
2022/05/18 05:50:53;;;;;;;3.20;1.40;;;;;;;14.44;67.96;101245.06;5589816;31;34016;-69
2022/05/18 05:53:56;;;;;;;5.20;1.50;;;;;;;14.25;67.56;101247.09;5588160;31;32832;-69
2022/05/18 05:57:02;;;;;;;2.05;1.20;;;;;;;14.40;67.40;101252.59;5589846;31;33984;-70
2022/05/18 06:00:07;;;;;;;2.03;1.30;;;;;;;14.39;67.38;101266.09;5589639;31;34313;-70
2022/05/18 06:03:14;;;;;;;2.72;1.35;;;;;;;14.30;65.89;101260.75;5589928;31;34727;-69
2022/05/18 06:06:19;;;;;;;2.35;1.37;;;;;;;14.15;67.47;101266.94;5589968;31;34178;-68
2022/05/18 06:09:21;;;;;;;6.97;1.55;;;;;;;14.32;67.04;101276.63;5588954;31;34482;-69
2022/05/18 06:12:25;;;;;;;1.92;1.10;;;;;;;14.47;64.39;101285.63;5588971;31;34123;-70
2022/05/18 06:15:28;;;;;;;2.10;1.10;;;;;;;14.18;63.66;101282.66;5589739;31;34253;-70
2022/05/18 06:18:31;;;;;;;2.12;1.30;;;;;;;14.42;64.59;101279.12;5588733;31;34602;-69
2022/05/18 06:21:34;;;;;;;1.40;1.00;;;;;;;14.56;62.49;101294.44;5589494;31;34585;-70
2022/05/18 06:24:37;;;;;;;5.78;1.15;;;;;;;14.43;62.48;101297.63;5589196;31;34028;-70
2022/05/18 06:27:41;;;;;;;4.05;1.10;;;;;;;14.35;61.56;101308.28;5588434;31;33973;-68
2022/05/18 06:30:44;;;;;;;2.12;0.98;;;;;;;14.52;60.75;101303.81;5588040;31;33890;-69
2022/05/18 06:33:47;;;;;;;2.03;1.35;;;;;;;14.44;58.78;101319.81;5589483;31;33473;-69
2022/05/18 06:36:50;;;;;;;1.50;1.10;;;;;;;14.37;58.35;101334.84;5589287;31;34833;-69
2022/05/18 06:39:53;;;;;;;3.12;1.10;;;;;;;14.47;59.67;101332.84;5589800;31;34133;-69
2022/05/18 06:42:56;;;;;;;2.97;0.90;;;;;;;14.74;58.97;101338.63;5588953;31;33930;-69
2022/05/18 06:46:01;;;;;;;4.45;1.10;;;;;;;14.85;58.57;101340.09;5589287;31;34043;-68
2022/05/18 06:49:06;;;;;;;3.62;1.25;;;;;;;15.10;58.64;101346.19;5588673;31;33297;-69
2022/05/18 06:52:11;;;;;;;2.20;1.25;;;;;;;15.40;58.43;101348.00;5589635;31;34041;-69
2022/05/18 06:55:14;;;;;;;3.42;1.23;;;;;;;15.57;58.50;101354.97;5589566;31;34059;-69
2022/05/18 06:58:18;;;;;;;2.12;1.30;;;;;;;15.70;57.06;101354.38;5587157;31;32534;-69
2022/05/18 07:01:22;;;;;;;3.47;1.17;;;;;;;16.01;55.36;101351.66;5588440;31;32719;-71
2022/05/18 07:04:24;;;;;;;3.90;1.30;;;;;;;15.89;56.89;101351.25;5588458;31;35185;-70
2022/05/18 07:07:27;;;;;;;1.92;1.08;;;;;;;16.25;55.62;101364.84;5589163;31;34346;-68
2022/05/18 07:10:30;;;;;;;1.85;1.00;;;;;;;15.93;55.75;101378.47;5589574;31;34257;-70
2022/05/18 07:13:34;;;;;;;3.60;1.42;;;;;;;16.01;55.19;101376.59;5588983;31;34581;-69
2022/05/18 07:16:37;;;;;;;1.77;1.12;;;;;;;16.35;56.25;101392.22;5589488;31;34086;-69
2022/05/18 07:19:40;;;;;;;2.53;1.17;;;;;;;16.90;54.30;101393.69;5588848;31;33968;-69
2022/05/18 07:22:43;;;;;;;2.37;1.20;;;;;;;17.20;54.33;101394.53;5589225;31;34628;-68
2022/05/18 07:25:46;;;;;;;2.95;1.33;;;;;;;17.95;51.67;101386.16;5589167;31;34079;-69
2022/05/18 07:28:51;;;;;;;2.45;1.10;;;;;;;17.52;52.24;101393.28;5589019;31;34756;-68
2022/05/18 07:32:09;;;;;;;1.70;1.17;;;;;;;18.69;50.69;101395.47;5588960;31;33881;-68
2022/05/18 07:35:12;;;;;;;2.12;1.10;;;;;;;19.71;46.79;101401.00;5588880;31;33934;-68
2022/05/18 07:38:15;;;;;;;1.58;1.05;;;;;;;19.83;46.41;101408.28;5587704;31;32458;-68
2022/05/18 07:41:38;;;;;;;3.55;1.20;;;;;;;20.17;45.46;101410.00;5587992;31;33616;-69
2022/05/18 07:44:41;;;;;;;2.78;1.02;;;;;;;20.44;44.42;101418.12;5587977;31;33184;-71
2022/05/18 07:47:43;;;;;;;2.67;1.37;;;;;;;20.00;43.19;101411.41;5588671;31;34124;-69
2022/05/18 07:50:46;;;;;;;1.42;0.90;;;;;;;20.05;43.04;101416.19;5587890;31;32605;-69
2022/05/18 07:53:49;;;;;;;4.03;1.27;;;;;;;19.61;40.26;101424.78;5587600;31;32934;-68
2022/05/18 07:56:51;;;;;;;2.67;0.75;;;;;;;19.76;42.04;101420.91;5587648;31;33874;-69
2022/05/18 07:59:58;;;;;;;1.80;0.80;;;;;;;19.72;40.96;101425.03;5588309;31;34107;-69
2022/05/18 08:03:02;;;;;;;1.62;0.60;;;;;;;20.54;39.10;101435.56;5588339;31;34569;-67
2022/05/18 08:06:05;;;;;;;2.03;0.80;;;;;;;20.01;38.24;101439.19;5587699;31;32339;-70
2022/05/18 08:09:07;;;;;;;2.58;1.17;;;;;;;21.00;36.51;101443.63;5588131;31;32746;-69
2022/05/18 08:15:35;;;;;;;1.12;0.73;;;;;;;21.25;34.93;101454.59;5589786;31;33517;-69
2022/05/18 08:18:38;;;;;;;3.20;0.90;;;;;;;20.53;35.58;101454.63;5590357;31;34013;-69
2022/05/18 08:21:41;;;;;;;1.92;0.80;;;;;;;22.10;33.17;101458.81;5589983;31;33270;-70
2022/05/18 08:24:44;;;;;;;3.17;1.00;;;;;;;23.13;31.89;101464.69;5589896;31;33199;-70
2022/05/18 08:27:49;;;;;;;3.72;1.12;;;;;;;21.43;34.94;101472.81;5590311;31;34678;-67
2022/05/18 08:30:54;;;;;;;3.05;1.00;;;;;;;19.89;38.38;101471.28;5576674;31;32589;-68
2022/05/18 08:33:56;;;;;;;8.55;2.15;;;;;;;19.90;38.78;101478.31;5589736;31;33216;-69
2022/05/18 08:37:00;;;;;;;2.92;1.05;;;;;;;20.73;37.44;101475.16;5589211;31;32803;-68
2022/05/18 08:40:03;;;;;;;2.28;1.00;;;;;;;22.44;35.92;101471.91;5590581;31;34108;-67
2022/05/18 08:43:10;;;;;;;4.20;1.00;;;;;;;24.03;31.81;101476.53;5589840;31;32436;-67
2022/05/18 08:46:15;;;;;;;4.87;1.37;;;;;;;22.95;33.75;101479.00;5589474;31;32891;-69
2022/05/18 08:49:30;;;;;;;5.37;0.90;;;;;;;20.25;35.81;101479.88;5589644;31;33476;-70
2022/05/18 08:52:46;;;;;;;6.22;1.00;;;;;;;19.92;37.15;101481.66;5589486;31;32840;-68
2022/05/18 08:56:08;;;;;;;1.98;0.98;;;;;;;20.84;37.64;101498.00;5589503;31;33290;-70
2022/05/18 08:59:24;;;;;;;3.78;0.90;;;;;;;20.92;34.61;101488.84;5590046;31;33915;-69
2022/05/18 09:02:32;;;;;;;1.33;0.90;;;;;;;22.25;33.03;101482.84;5590153;31;34240;-68
2022/05/18 09:05:48;;;;;;;2.30;0.80;;;;;;;20.96;35.77;101487.41;5590168;31;33925;-69
2022/05/18 09:12:31;;;;;;;;;;;;;;;24.63;29.81;101491.72;5589489;31;32405;-69
2022/05/18 09:15:49;;;;;;;2.25;0.70;;;;;;;24.02;30.27;101488.41;5589204;31;34329;-67
2022/05/18 09:19:11;;;;;;;3.00;0.82;;;;;;;24.44;29.70;101500.16;5589520;31;33087;-69
2022/05/18 09:22:21;;;;;;;1.92;0.80;;;;;;;26.08;24.90;101488.16;5589436;31;34079;-68
2022/05/18 09:25:46;;;;;;;4.10;0.80;;;;;;;22.87;29.47;101492.81;5589516;31;33170;-68
2022/05/18 09:29:05;;;;;;;1.73;0.68;;;;;;;22.30;31.45;101488.44;5588775;31;32314;-69
2022/05/18 09:32:17;;;;;;;;;;;;;;;24.22;27.33;101492.53;5590367;31;34281;-69
2022/05/18 09:35:44;;;;;;;3.08;0.75;;;;;;;22.98;28.58;101499.38;5589752;31;34973;-68
2022/05/18 09:38:56;;;;;;;3.17;0.93;;;;;;;23.17;28.41;101482.13;5589532;31;34030;-67
2022/05/18 09:42:08;;;;;;;3.87;0.88;;;;;;;25.56;25.19;101493.66;5588988;31;32424;-68
2022/05/18 09:45:18;;;;;;;2.70;0.70;;;;;;;25.35;25.81;101500.50;5590883;31;33996;-67
2022/05/18 09:48:31;;;;;;;2.08;0.98;;;;;;;26.50;24.02;101491.37;5577443;31;33754;-68
2022/05/18 09:51:36;;;;;;;1.80;0.70;;;;;;;27.82;21.49;101491.47;5591511;31;34182;-67
2022/05/18 09:54:40;;;;;;;4.15;0.82;;;;;;;26.67;21.43;101484.91;5589342;31;33637;-69
2022/05/18 09:57:45;;;;;;;2.58;1.00;;;;;;;27.46;23.72;101498.31;5589771;31;34618;-69
2022/05/18 10:00:49;;;;;;;1.20;0.80;;;;;;;24.41;24.63;101506.88;5588903;31;34153;-68
2022/05/18 10:07:32;;;;;;;1.60;0.80;;;;;;;28.66;21.00;101495.31;5588918;31;34267;-67
2022/05/18 10:10:38;;;;;;;1.20;0.73;;;;;;;28.36;21.38;101501.34;5589451;31;34347;-66
2022/05/18 10:13:54;;;;;;;2.08;0.88;;;;;;;25.64;24.52;101500.59;5589674;31;34607;-67
2022/05/18 10:17:05;;;;;;;1.90;0.90;;;;;;;23.78;26.60;101501.03;5589951;31;33952;-66
2022/05/18 10:20:19;;;;;;;2.17;0.80;;;;;;;24.27;25.08;101491.84;5588422;31;32722;-68
2022/05/18 10:23:37;;;;;;;1.25;0.70;;;;;;;24.47;26.16;101492.38;5588740;31;32608;-68
2022/05/18 10:26:43;;;;;;;3.25;0.82;;;;;;;23.38;26.44;101493.34;5584145;31;143476;-68
2022/05/18 10:30:08;;;;;;;2.80;0.65;;;;;;;26.16;23.71;101493.19;5588343;31;32769;-68
2022/05/18 10:33:23;;;;;;;1.05;0.55;;;;;;;26.74;20.92;101488.25;5589248;31;34779;-68
2022/05/18 10:36:28;;;;;;;4.10;0.93;;;;;;;26.11;22.41;101480.31;5589214;31;33947;-68
2022/05/18 10:39:36;;;;;;;0.82;0.40;;;;;;;26.51;23.45;101477.53;5589213;31;34028;-69
2022/05/18 10:42:52;;;;;;;1.20;0.52;;;;;;;25.95;20.12;101481.09;5588269;31;34837;-68
2022/05/18 10:45:59;;;;;;;1.08;0.60;;;;;;;25.42;20.80;101481.34;5589393;31;33860;-68
2022/05/18 10:49:07;;;;;;;1.77;0.60;;;;;;;26.05;21.16;101475.84;5589351;31;34643;-68
2022/05/18 10:52:13;;;;;;;1.37;0.70;;;;;;;27.39;21.15;101478.63;5588807;31;33865;-69
2022/05/18 10:55:19;;;;;;;3.17;0.70;;;;;;;28.23;19.23;101476.38;5589255;31;34496;-69
2022/05/18 10:58:38;;;;;;;0.50;0.30;;;;;;;30.03;17.30;101490.66;5589350;31;34563;-68
2022/05/18 11:02:02;;;;;;;1.40;0.50;;;;;;;30.50;16.11;101476.81;5589553;31;34538;-68
2022/05/18 11:05:15;;;;;;;3.42;0.55;;;;;;;30.76;15.26;101469.38;5588695;31;33012;-68
2022/05/18 11:08:22;;;;;;;1.10;0.43;;;;;;;31.71;13.99;101462.03;5589030;31;35277;-68
2022/05/18 11:12:12;;;;;;;1.30;0.60;;;;;;;32.01;14.87;101464.59;5588503;31;32336;-67
2022/05/18 11:15:18;;;;;;;2.35;0.80;;;;;;;31.39;13.80;101448.69;5583604;31;33364;-68
2022/05/18 11:18:48;;;;;;;1.65;0.50;;;;;;;32.72;13.45;101455.84;5589518;31;33954;-68
2022/05/18 11:22:14;;;;;;;1.40;0.75;;;;;;;30.05;18.33;101452.91;5588404;31;33389;-68
2022/05/18 11:25:26;;;;;;;3.17;0.60;;;;;;;28.37;19.84;101456.56;5588340;31;32747;-68
2022/05/18 11:28:55;;;;;;;0.82;0.52;;;;;;;30.90;17.17;101454.84;5576936;31;32786;-68
2022/05/18 11:32:14;;;;;;;2.62;0.60;;;;;;;33.61;14.65;101440.53;5589259;31;34019;-68
2022/05/18 11:35:34;;;;;;;2.12;0.80;;;;;;;34.06;15.22;101444.59;5589065;31;34029;-67
2022/05/18 11:38:45;;;;;;;1.33;0.45;;;;;;;32.21;16.45;101447.19;5589031;31;34029;-69
2022/05/18 11:41:54;;;;;;;2.25;0.60;;;;;;;31.00;16.30;101452.09;5588616;31;34717;-68
2022/05/18 11:44:56;;;;;;;;;;;;;;;31.30;16.26;101445.72;5588322;31;34232;-69
2022/05/18 11:48:03;;;;;;;2.10;0.60;;;;;;;30.67;16.62;101435.44;5588712;31;34775;-67
2022/05/18 11:51:18;;;;;;;1.27;0.70;;;;;;;31.12;17.40;101437.28;5588701;31;33971;-68
2022/05/18 11:54:27;;;;;;;1.20;0.62;;;;;;;33.91;14.54;101436.56;5588761;31;33950;-67
2022/05/18 11:57:35;;;;;;;1.40;0.60;;;;;;;31.06;15.32;101422.78;5588445;31;34079;-67
2022/05/18 12:01:14;;;;;;;1.65;0.60;;;;;;;31.18;15.22;101422.47;5588337;31;34336;-68
2022/05/18 12:04:23;;;;;;;3.55;0.98;;;;;;;31.63;14.50;101432.44;5588663;31;33977;-69
2022/05/18 12:08:27;;;;;;;0.45;0.40;;;;;;;32.12;13.31;101441.50;5587744;31;32901;-69
2022/05/18 12:11:49;;;;;;;1.15;0.40;;;;;;;31.33;11.08;101433.34;5566248;31;33844;-69
2022/05/18 12:15:02;;;;;;;1.02;0.45;;;;;;;30.98;10.90;101428.81;5587573;31;34610;-69
2022/05/18 12:18:20;;;;;;;1.05;0.40;;;;;;;33.42;9.83;101437.75;5574065;31;33122;-68
2022/05/18 12:21:40;;;;;;;3.53;0.50;;;;;;;35.29;9.50;101436.66;5588157;31;35299;-68
2022/05/18 12:24:46;;;;;;;1.40;0.47;;;;;;;34.54;7.97;101439.69;5587268;31;32792;-69
2022/05/18 12:27:54;;;;;;;0.75;0.43;;;;;;;31.83;10.32;101433.16;5574039;31;32969;-68
2022/05/18 12:30:58;;;;;;;0.90;0.37;;;;;;;29.96;11.75;101440.87;5587703;31;35206;-68
2022/05/18 12:34:23;;;;;;;4.53;0.40;;;;;;;33.31;9.91;101440.94;5588111;31;34273;-68
2022/05/18 12:37:36;;;;;;;1.77;0.40;;;;;;;34.07;9.38;101442.66;5587579;31;34069;-68
2022/05/18 12:40:56;;;;;;;1.85;0.57;;;;;;;34.30;8.54;101439.81;5587454;31;34753;-68
2022/05/18 12:44:24;;;;;;;0.57;0.32;;;;;;;36.21;8.11;101432.69;5586594;31;33845;-69
2022/05/18 12:47:39;;;;;;;;;;;;;;;36.84;7.21;101436.00;5578833;31;33848;-67
2022/05/18 12:50:59;;;;;;;2.70;1.05;;;;;;;36.70;8.32;101435.28;5586720;31;35490;-69
2022/05/18 12:54:23;;;;;;;4.00;1.10;;;;;;;34.28;8.59;101442.06;5587721;31;33920;-69
2022/05/18 12:57:41;;;;;;;1.80;0.50;;;;;;;35.86;7.08;101442.59;5589448;31;33066;-66
2022/05/18 13:01:05;;;;;;;1.20;0.45;;;;;;;36.83;7.31;101444.63;5589585;31;33965;-66
2022/05/18 13:04:08;;;;;;;1.30;0.50;;;;;;;35.87;7.83;101438.72;5590047;31;34747;-66
2022/05/18 13:07:19;;;;;;;1.85;0.40;;;;;;;35.39;8.39;101447.47;5589286;31;32779;-67
2022/05/18 13:10:27;;;;;;;1.90;0.30;;;;;;;33.20;8.88;101421.00;5589432;31;34045;-67
2022/05/18 13:13:34;;;;;;;0.90;0.30;;;;;;;35.56;8.46;101419.22;5589986;31;33910;-65
2022/05/18 13:16:37;;;;;;;0.70;0.50;;;;;;;31.40;8.96;101431.16;5590303;31;33882;-66
2022/05/18 13:20:04;;;;;;;1.52;0.50;;;;;;;35.70;7.12;101425.56;5589042;31;33630;-67
2022/05/18 13:23:31;;;;;;;0.67;0.33;;;;;;;36.99;6.62;101424.50;5588949;31;32442;-67
2022/05/18 13:26:43;;;;;;;0.62;0.30;;;;;;;31.15;9.48;101417.53;5589853;31;34552;-67
2022/05/18 13:29:50;;;;;;;0.50;0.25;;;;;;;36.07;7.97;101436.28;5590047;31;33866;-67
2022/05/18 13:32:53;;;;;;;1.27;0.30;;;;;;;37.49;6.91;101434.44;5588646;31;34074;-66
2022/05/18 13:35:56;;;;;;;0.57;0.30;;;;;;;36.81;6.32;101428.34;5589752;31;34754;-67
2022/05/18 13:39:03;;;;;;;0.90;0.35;;;;;;;37.26;6.30;101423.50;5588696;31;33578;-67
2022/05/18 13:42:14;;;;;;;0.95;0.32;;;;;;;35.48;8.28;101415.28;5589026;31;32615;-67
2022/05/18 13:45:17;;;;;;;3.35;0.50;;;;;;;39.41;6.03;101417.63;5589586;31;34855;-67
2022/05/18 13:48:23;;;;;;;3.60;0.40;;;;;;;34.03;10.13;101415.69;5588929;31;33992;-66
2022/05/18 13:51:50;;;;;;;0.73;0.37;;;;;;;33.04;8.68;101414.81;5588629;31;32533;-67
2022/05/18 13:55:02;;;;;;;0.77;0.30;;;;;;;38.25;6.18;101416.25;5588002;31;32517;-67
2022/05/18 13:58:07;;;;;;;1.50;0.40;;;;;;;36.54;6.42;101412.75;5589266;31;33947;-67
2022/05/18 14:01:13;;;;;;;0.40;0.30;;;;;;;38.81;7.53;101400.44;5589009;31;33990;-67
2022/05/18 14:04:30;;;;;;;0.70;0.47;;;;;;;39.94;6.80;101405.00;5588174;31;32549;-66
2022/05/18 14:07:53;;;;;;;2.12;0.50;;;;;;;37.48;7.85;101407.88;5588323;31;33591;-67
2022/05/18 14:11:19;;;;;;;0.85;0.40;;;;;;;38.70;8.11;101405.53;5589370;31;34274;-67
2022/05/18 14:14:22;;;;;;;0.77;0.40;;;;;;;37.67;9.14;101403.69;5588587;31;33709;-66
2022/05/18 14:17:31;;;;;;;1.98;0.47;;;;;;;35.06;9.06;101390.75;5588200;31;34196;-66
2022/05/18 14:20:43;;;;;;;1.30;0.40;;;;;;;31.98;10.67;101392.97;5588225;31;33326;-66
2022/05/18 14:24:02;;;;;;;0.45;0.30;;;;;;;29.89;11.68;101399.25;5587491;31;34063;-67
2022/05/18 14:27:21;;;;;;;1.65;1.00;;;;;;;27.34;13.61;101388.63;5587999;31;32403;-66
2022/05/18 14:30:35;;;;;;;3.45;0.55;;;;;;;27.60;12.75;101390.59;5588918;31;34708;-67
2022/05/18 14:34:06;;;;;;;4.62;0.60;;;;;;;27.93;13.26;101392.31;5587862;31;32928;-67
2022/05/18 14:37:13;;;;;;;1.25;0.50;;;;;;;26.41;13.62;101384.03;5589270;31;35236;-65
2022/05/18 14:40:32;;;;;;;0.93;0.60;;;;;;;26.04;14.79;101398.09;5587852;31;33548;-66
2022/05/18 14:43:35;;;;;;;0.62;0.30;;;;;;;25.28;15.34;101396.56;5588023;31;34173;-66
2022/05/18 14:46:46;;;;;;;4.18;0.43;;;;;;;28.11;14.12;101394.69;5588487;31;32759;-65
2022/05/18 14:49:55;;;;;;;1.45;0.60;;;;;;;26.82;14.06;101391.72;5574989;31;32771;-65
2022/05/18 14:53:12;;;;;;;0.60;0.47;;;;;;;26.12;14.33;101392.22;5589116;31;34001;-65